createdAt,value
2022-12-15T00:00:01.142Z,43.63
2022-12-15T00:02:47.765Z,45.10
2022-12-15T00:05:32.897Z,44.50
2022-12-15T00:08:25.460Z,43.20
2022-12-15T00:11:10.907Z,46.07
2022-12-15T00:13:56.281Z,44.78
2022-12-15T00:16:41.839Z,44.35
2022-12-15T00:19:28.969Z,45.63
2022-12-15T00:22:14.290Z,44.80
2022-12-15T00:24:59.789Z,42.38
2022-12-15T00:27:45.050Z,44.20
2022-12-15T00:30:30.821Z,42.97
2022-12-15T00:33:16.276Z,40.50
2022-12-15T00:36:03.035Z,41.95
2022-12-15T00:38:46.121Z,42.65
2022-12-15T00:41:15.806Z,42.22
2022-12-15T00:43:43.650Z,43.53
2022-12-15T00:46:28.987Z,42.95
2022-12-15T00:48:56.832Z,41.17
2022-12-15T00:51:44.222Z,40.38
2022-12-15T00:54:29.695Z,40.33
2022-12-15T00:57:15.219Z,41.03
2022-12-15T01:00:00.352Z,39.22
2022-12-15T01:02:46.007Z,38.15
2022-12-15T01:05:31.261Z,40.78
2022-12-15T01:08:19.478Z,39.95
2022-12-15T01:11:04.875Z,40.72
2022-12-15T01:13:50.406Z,41.67
2022-12-15T01:16:36.066Z,41.60
2022-12-15T01:19:24.310Z,42.13
2022-12-15T01:21:52.068Z,41.47
2022-12-15T01:24:21.192Z,41.60
2022-12-15T01:26:48.984Z,40.50
2022-12-15T01:29:16.873Z,41.05
2022-12-15T01:31:44.721Z,38.35
2022-12-15T01:34:19.847Z,39.73
2022-12-15T01:36:47.939Z,39.45
2022-12-15T01:39:15.931Z,38.67
2022-12-15T01:41:44.152Z,38.33
2022-12-15T01:44:17.744Z,38.50
2022-12-15T01:46:45.716Z,38.72
2022-12-15T01:49:17.202Z,40.58
2022-12-15T01:51:49.447Z,37.83
2022-12-15T01:54:21.397Z,37.70
2022-12-15T01:56:53.599Z,38.10
2022-12-15T01:59:27.990Z,38.85
2022-12-15T02:01:55.906Z,36.83
2022-12-15T02:04:25.390Z,36.67
2022-12-15T02:06:53.301Z,35.10
2022-12-15T02:09:23.349Z,35.47
2022-12-15T02:12:03.106Z,35.42
2022-12-15T02:14:46.274Z,36.53
2022-12-15T02:17:23.531Z,35.63
2022-12-15T02:20:34.650Z,37.90
2022-12-15T02:23:35.405Z,37.40
2022-12-15T02:26:39.912Z,37.80
2022-12-15T02:29:29.241Z,37.63
2022-12-15T02:32:04.530Z,39.55
2022-12-15T02:34:37.706Z,38.85
2022-12-15T02:37:08.818Z,39.05
2022-12-15T02:39:36.711Z,38.77
2022-12-15T02:42:04.680Z,39.22
2022-12-15T02:44:36.371Z,39.05
2022-12-15T02:47:28.390Z,38.58
2022-12-15T02:50:18.433Z,38.15
2022-12-15T02:53:00.212Z,39.80
2022-12-15T02:55:36.248Z,40.20
2022-12-15T02:58:09.372Z,40.17
2022-12-15T03:00:41.176Z,39.53
2022-12-15T03:03:10.900Z,41.17
2022-12-15T03:05:38.900Z,41.47
2022-12-15T03:08:06.768Z,40.35
2022-12-15T03:10:34.536Z,42.00
2022-12-15T03:13:02.326Z,42.25
2022-12-15T03:15:35.028Z,41.73
2022-12-15T03:18:03.181Z,42.72
2022-12-15T03:20:32.341Z,41.88
2022-12-15T03:23:01.724Z,43.67
2022-12-15T03:25:29.855Z,43.67
2022-12-15T03:27:57.818Z,45.20
2022-12-15T03:30:25.604Z,44.83
2022-12-15T03:32:53.416Z,47.03
2022-12-15T03:35:21.209Z,46.38
2022-12-15T03:37:50.291Z,47.05
2022-12-15T03:40:18.333Z,48.20
2022-12-15T03:42:49.186Z,47.55
2022-12-15T03:45:19.004Z,47.67
2022-12-15T03:47:47.429Z,46.63
2022-12-15T03:50:17.739Z,46.83
2022-12-15T03:52:45.649Z,45.95
2022-12-15T03:55:14.792Z,47.47
2022-12-15T03:57:42.589Z,47.22
2022-12-15T04:00:14.908Z,46.10
2022-12-15T04:02:42.962Z,47.53
2022-12-15T04:05:16.190Z,46.03
2022-12-15T04:07:44.026Z,44.63
2022-12-15T04:10:14.071Z,43.58
2022-12-15T04:12:42.826Z,43.70
2022-12-15T04:15:12.301Z,45.00
2022-12-15T04:17:40.292Z,45.95
2022-12-15T04:20:12.572Z,45.53
2022-12-15T04:22:42.895Z,46.60
2022-12-15T04:25:30.638Z,45.58
2022-12-15T04:28:17.435Z,49.28
2022-12-15T04:31:07.089Z,46.95
2022-12-15T04:33:53.440Z,47.85
2022-12-15T04:36:38.899Z,47.13
2022-12-15T04:39:24.271Z,48.72
2022-12-15T04:42:09.822Z,51.17
2022-12-15T04:44:56.943Z,49.17
2022-12-15T04:47:42.521Z,48.88
2022-12-15T04:50:28.302Z,49.53
2022-12-15T04:53:14.435Z,50.38
2022-12-15T04:55:59.807Z,48.83
2022-12-15T04:58:45.197Z,48.78
2022-12-15T05:01:32.112Z,50.63
2022-12-15T05:04:17.304Z,49.15
2022-12-15T05:07:02.767Z,49.70
2022-12-15T05:09:48.210Z,49.58
2022-12-15T05:12:33.743Z,50.05
2022-12-15T05:15:19.206Z,49.80
2022-12-15T05:18:05.878Z,49.50
2022-12-15T05:20:51.430Z,50.33
2022-12-15T05:23:36.858Z,51.25
2022-12-15T05:26:22.458Z,50.25
2022-12-15T05:29:07.938Z,49.55
2022-12-15T05:31:47.845Z,50.40
2022-12-15T05:34:17.464Z,48.40
2022-12-15T05:36:45.257Z,49.53
2022-12-15T05:39:13.022Z,46.67
2022-12-15T05:41:40.902Z,49.05
2022-12-15T05:44:09.140Z,47.67
2022-12-15T05:46:37.191Z,49.33
2022-12-15T05:49:05.903Z,48.50
2022-12-15T05:51:38.021Z,48.58
2022-12-15T05:54:06.154Z,50.35
2022-12-15T05:56:33.988Z,48.67
2022-12-15T05:59:02.129Z,48.88
2022-12-15T06:01:31.761Z,50.85
2022-12-15T06:03:59.993Z,50.07
2022-12-15T06:06:27.939Z,47.17
2022-12-15T06:08:57.350Z,45.75
2022-12-15T06:11:25.230Z,48.38
2022-12-15T06:13:53.801Z,46.05
2022-12-15T06:16:23.511Z,48.88
2022-12-15T06:18:55.003Z,49.88
2022-12-15T06:21:24.916Z,46.20
2022-12-15T06:23:53.490Z,47.38
2022-12-15T06:26:25.359Z,48.38
2022-12-15T06:28:55.386Z,48.03
2022-12-15T06:31:23.474Z,46.28
2022-12-15T06:33:55.990Z,46.43
2022-12-15T06:36:28.405Z,46.28
2022-12-15T06:38:59.021Z,44.40
2022-12-15T06:41:29.549Z,47.63
2022-12-15T06:43:58.009Z,46.95
2022-12-15T06:46:27.832Z,44.57
2022-12-15T06:48:55.712Z,45.15
2022-12-15T06:51:23.721Z,44.37
2022-12-15T06:53:53.907Z,46.25
2022-12-15T06:56:30.607Z,47.00
2022-12-15T06:59:03.487Z,47.60
2022-12-15T07:01:32.499Z,45.25
2022-12-15T07:04:01.440Z,48.03
2022-12-15T07:06:36.077Z,48.50
2022-12-15T07:09:04.995Z,47.58
2022-12-15T07:11:33.052Z,47.72
2022-12-15T07:14:02.236Z,47.95
2022-12-15T07:16:30.122Z,48.65
2022-12-15T07:18:57.956Z,49.83
2022-12-15T07:21:25.901Z,48.22
2022-12-15T07:23:55.774Z,45.70
2022-12-15T07:26:25.006Z,46.78
2022-12-15T07:28:53.278Z,46.30
2022-12-15T07:31:23.613Z,47.60
2022-12-15T07:33:52.120Z,47.22
2022-12-15T07:36:20.438Z,45.95
2022-12-15T07:38:50.083Z,45.35
2022-12-15T07:41:19.403Z,46.40
2022-12-15T07:43:47.618Z,46.10
2022-12-15T07:46:15.697Z,46.78
2022-12-15T07:48:50.182Z,47.58
2022-12-15T07:51:20.145Z,48.17
2022-12-15T07:53:49.407Z,48.92
2022-12-15T07:56:17.292Z,47.95
2022-12-15T07:58:45.144Z,49.63
2022-12-15T08:01:14.674Z,49.97
2022-12-15T08:03:44.927Z,50.78
2022-12-15T08:06:15.182Z,47.83
2022-12-15T08:08:44.980Z,48.92
2022-12-15T08:11:20.289Z,48.30
2022-12-15T08:14:05.715Z,48.60
2022-12-15T08:16:36.493Z,46.40
2022-12-15T08:19:06.561Z,47.78
2022-12-15T08:21:34.762Z,46.58
2022-12-15T08:24:02.869Z,48.42
2022-12-15T08:26:31.617Z,47.17
2022-12-15T08:29:31.831Z,47.17
2022-12-15T08:31:51.846Z,48.28
2022-12-15T08:34:21.552Z,49.97
2022-12-15T08:36:49.395Z,46.58
2022-12-15T08:39:17.408Z,47.28
2022-12-15T08:41:45.845Z,46.25
2022-12-15T08:44:13.755Z,47.05
2022-12-15T08:46:41.543Z,47.17
2022-12-15T08:49:09.743Z,46.53
2022-12-15T08:51:38.913Z,46.88
2022-12-15T08:54:06.748Z,47.33
2022-12-15T08:56:37.121Z,49.73
2022-12-15T08:59:04.899Z,47.88
2022-12-15T09:01:33.909Z,48.72
2022-12-15T09:04:04.747Z,47.35
2022-12-15T09:06:35.175Z,47.45
2022-12-15T09:09:07.167Z,47.90
2022-12-15T09:11:35.650Z,46.65
2022-12-15T09:14:04.258Z,46.70
2022-12-15T09:16:32.081Z,46.90
2022-12-15T09:19:00.916Z,47.33
2022-12-15T09:21:30.658Z,48.70
2022-12-15T09:24:01.843Z,47.13
2022-12-15T09:26:33.171Z,47.65
2022-12-15T09:29:02.393Z,48.78
2022-12-15T09:31:32.659Z,50.53
2022-12-15T09:34:01.751Z,49.40
2022-12-15T09:36:30.776Z,49.05
2022-12-15T09:38:59.084Z,49.28
2022-12-15T09:41:29.821Z,50.47
2022-12-15T09:44:03.489Z,48.70
2022-12-15T09:46:41.066Z,49.83
2022-12-15T09:49:15.915Z,49.22
2022-12-15T09:51:52.682Z,50.63
2022-12-15T09:54:23.039Z,48.50
2022-12-15T09:56:56.798Z,47.70
2022-12-15T09:59:34.040Z,48.20
2022-12-15T10:02:18.733Z,48.47
2022-12-15T10:04:56.945Z,49.40
2022-12-15T10:07:30.650Z,46.30
2022-12-15T10:09:58.483Z,49.72
2022-12-15T10:12:30.974Z,49.30
2022-12-15T10:15:11.399Z,49.13
2022-12-15T10:17:48.506Z,49.03
2022-12-15T10:20:21.829Z,48.83
2022-12-15T10:22:50.294Z,47.60
2022-12-15T10:25:27.473Z,47.78
2022-12-15T10:28:23.519Z,47.42
2022-12-15T10:30:59.210Z,48.28
2022-12-15T10:33:29.978Z,48.60
2022-12-15T10:35:58.236Z,48.22
2022-12-15T10:38:32.160Z,49.72
2022-12-15T10:41:02.566Z,48.25
2022-12-15T10:43:35.572Z,47.70
2022-12-15T10:46:13.488Z,46.75
2022-12-15T10:48:42.753Z,47.65
2022-12-15T10:51:22.559Z,46.30
2022-12-15T10:53:52.513Z,46.65
2022-12-15T10:56:30.677Z,47.10
2022-12-15T10:59:03.808Z,48.95
2022-12-15T11:01:35.490Z,46.97
2022-12-15T11:04:03.731Z,48.40
2022-12-15T11:06:34.065Z,48.40
2022-12-15T11:09:21.578Z,50.17
2022-12-15T11:12:11.911Z,49.40
2022-12-15T11:14:45.867Z,49.75
2022-12-15T11:17:18.649Z,51.17
2022-12-15T11:19:58.221Z,50.47
2022-12-15T11:22:40.645Z,51.00
2022-12-15T11:25:21.265Z,53.58
2022-12-15T11:27:52.410Z,53.08
2022-12-15T11:30:22.695Z,53.25
2022-12-15T11:32:57.950Z,53.25
2022-12-15T11:35:30.849Z,53.35
2022-12-15T11:38:09.859Z,56.28
2022-12-15T11:40:40.513Z,58.20
2022-12-15T11:43:34.297Z,57.05
2022-12-15T11:46:21.610Z,55.17
2022-12-15T11:49:07.154Z,55.05
2022-12-15T11:51:42.328Z,56.33
2022-12-15T11:54:24.302Z,55.17
2022-12-15T11:56:57.516Z,53.13
2022-12-15T11:59:43.595Z,56.95
2022-12-15T12:02:36.641Z,55.85
2022-12-15T12:05:24.882Z,56.80
2022-12-15T12:07:58.502Z,58.47
2022-12-15T12:10:38.672Z,54.60
2022-12-15T12:13:19.774Z,53.72
2022-12-15T12:15:55.595Z,55.13
2022-12-15T12:18:28.649Z,56.05
2022-12-15T12:21:02.701Z,54.97
2022-12-15T12:23:39.564Z,55.23
2022-12-15T12:26:14.222Z,58.30
2022-12-15T12:31:50.849Z,61.33
2022-12-15T12:34:24.439Z,61.80
2022-12-15T12:36:55.925Z,61.80
2022-12-15T12:39:26.397Z,59.47
2022-12-15T12:42:03.439Z,61.10
2022-12-15T12:44:35.080Z,63.88
2022-12-15T12:47:12.480Z,64.78
2022-12-15T12:49:44.924Z,59.78
2022-12-15T12:52:22.501Z,59.35
2022-12-15T12:54:59.813Z,61.35
2022-12-15T12:57:40.433Z,60.40
2022-12-15T13:00:20.765Z,58.70
2022-12-15T13:03:20.702Z,59.00
2022-12-15T13:05:54.356Z,59.83
2022-12-15T13:08:51.848Z,57.47
2022-12-15T13:12:10.133Z,62.58
2022-12-15T13:14:51.895Z,56.50
2022-12-15T13:17:27.844Z,57.10
2022-12-15T13:20:18.357Z,56.03
2022-12-15T13:22:46.261Z,55.88
2022-12-15T13:25:48.579Z,54.57
2022-12-15T13:28:40.327Z,56.88
2022-12-15T13:31:28.803Z,57.97
2022-12-15T13:34:28.480Z,58.30
2022-12-15T13:36:58.471Z,57.92
2022-12-15T13:40:00.802Z,58.58
2022-12-15T13:42:38.791Z,60.55
2022-12-15T13:45:45.123Z,58.47
2022-12-15T13:48:31.476Z,61.83
2022-12-15T13:51:05.415Z,59.15
2022-12-15T13:53:40.106Z,60.53
2022-12-15T13:56:24.428Z,59.97
2022-12-15T13:59:00.271Z,63.00
2022-12-15T14:01:32.833Z,63.13
2022-12-15T14:04:07.834Z,62.35
2022-12-15T14:06:38.831Z,60.65
2022-12-15T14:09:13.531Z,65.15
2022-12-15T14:14:34.378Z,65.72
2022-12-15T14:17:04.794Z,65.20
2022-12-15T14:19:40.959Z,62.45
2022-12-15T14:22:27.501Z,66.15
2022-12-15T14:25:03.151Z,67.72
2022-12-15T14:27:32.911Z,69.63
2022-12-15T14:30:18.900Z,72.55
2022-12-15T14:32:50.154Z,68.03
2022-12-15T14:35:25.580Z,68.03
2022-12-15T14:37:55.957Z,65.82
2022-12-15T14:40:28.880Z,70.87
2022-12-15T14:42:57.337Z,70.32
2022-12-15T14:45:28.534Z,70.00
2022-12-15T14:48:30.988Z,71.47
2022-12-15T14:50:51.171Z,70.38
2022-12-15T14:53:21.292Z,69.10
2022-12-15T14:55:49.386Z,67.93
2022-12-15T14:58:34.494Z,65.97
2022-12-15T15:01:07.128Z,68.90
2022-12-15T15:03:10.108Z,61.33
2022-12-15T15:03:39.963Z,68.75
2022-12-15T15:06:19.020Z,68.10
2022-12-15T15:08:49.047Z,71.43
2022-12-15T15:11:29.228Z,69.43
2022-12-15T15:13:59.477Z,69.00
2022-12-15T15:16:27.746Z,69.15
2022-12-15T15:18:56.854Z,66.80
2022-12-15T15:21:29.834Z,69.35
2022-12-15T15:24:02.019Z,65.40
2022-12-15T15:26:30.852Z,66.80
2022-12-15T15:28:59.196Z,68.53
2022-12-15T15:31:36.845Z,66.68
2022-12-15T15:34:08.485Z,65.77
2022-12-15T15:36:39.467Z,68.00
2022-12-15T15:39:13.351Z,64.15
2022-12-15T15:41:41.245Z,64.50
2022-12-15T15:44:14.396Z,64.40
2022-12-15T15:46:47.768Z,63.58
2022-12-15T15:49:18.684Z,65.57
2022-12-15T15:51:48.129Z,64.10
2022-12-15T15:54:18.281Z,64.22
2022-12-15T15:56:46.107Z,62.35
2022-12-15T15:59:16.278Z,60.95
2022-12-15T16:01:44.687Z,64.77
2022-12-15T16:04:12.621Z,67.97
2022-12-15T16:06:46.692Z,58.67
2022-12-15T16:09:17.723Z,61.10
2022-12-15T16:11:46.822Z,60.60
2022-12-15T16:14:16.195Z,59.40
2022-12-15T16:16:44.979Z,63.53
2022-12-15T16:19:12.946Z,63.70
2022-12-15T16:21:41.949Z,63.65
2022-12-15T16:24:11.771Z,67.90
2022-12-15T16:26:48.890Z,68.20
2022-12-15T16:29:18.721Z,70.90
2022-12-15T16:31:46.755Z,68.10
2022-12-15T16:34:16.262Z,68.35
2022-12-15T16:36:44.620Z,68.38
2022-12-15T16:39:26.171Z,70.95
2022-12-15T16:41:56.932Z,70.82
2022-12-15T16:44:25.796Z,70.47
2022-12-15T16:46:53.841Z,71.55
2022-12-15T16:49:21.809Z,69.60
2022-12-15T16:51:52.092Z,67.90
2022-12-15T16:54:23.111Z,70.00
2022-12-15T16:56:52.074Z,67.03
2022-12-15T16:59:33.455Z,69.20
2022-12-15T17:02:02.723Z,68.65
2022-12-15T17:04:30.645Z,65.28
2022-12-15T17:06:58.485Z,72.28
2022-12-15T17:09:27.234Z,66.53
2022-12-15T17:11:55.140Z,67.05
2022-12-15T17:14:24.651Z,68.20
2022-12-15T17:16:52.549Z,65.72
2022-12-15T17:19:21.505Z,65.95
2022-12-15T17:21:53.400Z,68.65
2022-12-15T17:24:22.463Z,65.80
2022-12-15T17:26:50.720Z,68.32
2022-12-15T17:29:22.353Z,67.55
2022-12-15T17:31:51.844Z,72.07
2022-12-15T17:34:27.236Z,66.88
2022-12-15T17:36:55.543Z,71.45
2022-12-15T17:39:23.905Z,70.20
2022-12-15T17:42:01.001Z,72.88
2022-12-15T17:44:33.479Z,78.03
2022-12-15T17:47:04.489Z,73.43
2022-12-15T17:49:36.130Z,79.95
2022-12-15T17:52:07.845Z,80.30
2022-12-15T17:54:35.666Z,82.93
2022-12-15T17:57:03.482Z,87.47
2022-12-15T17:59:32.231Z,88.67
2022-12-15T18:02:00.166Z,88.97
2022-12-15T18:04:29.457Z,89.70
2022-12-15T18:07:01.522Z,96.13
2022-12-15T18:09:30.707Z,91.45
2022-12-15T18:11:58.988Z,100.03
2022-12-15T18:14:28.896Z,98.35
2022-12-15T18:16:56.738Z,108.97
2022-12-15T18:19:24.612Z,101.25
2022-12-15T18:21:53.993Z,114.47
2022-12-15T18:24:22.048Z,100.65
2022-12-15T18:26:49.924Z,105.43
2022-12-15T18:29:18.905Z,111.95
2022-12-15T18:31:48.178Z,116.67
2022-12-15T18:34:18.534Z,113.60
2022-12-15T18:36:46.493Z,101.77
2022-12-15T18:39:20.006Z,113.72
2022-12-15T18:41:49.033Z,112.35
2022-12-15T18:44:22.473Z,113.35
2022-12-15T18:46:50.342Z,112.70
2022-12-15T18:49:18.308Z,111.35
2022-12-15T18:51:47.319Z,112.38
2022-12-15T18:54:19.083Z,108.00
2022-12-15T18:56:46.900Z,109.00
2022-12-15T18:59:16.951Z,118.53
2022-12-15T19:01:46.484Z,110.55
2022-12-15T19:04:14.487Z,124.88
2022-12-15T19:06:42.504Z,112.20
2022-12-15T19:09:16.533Z,124.45
2022-12-15T19:12:17.466Z,119.93
2022-12-15T19:14:46.956Z,121.68
2022-12-15T19:17:33.749Z,128.88
2022-12-15T19:20:19.265Z,115.78
2022-12-15T19:22:48.958Z,117.13
2022-12-15T19:25:25.417Z,117.25
2022-12-15T19:27:58.915Z,116.20
2022-12-15T19:30:28.157Z,115.18
2022-12-15T19:32:56.135Z,106.90
2022-12-15T19:35:24.633Z,117.72
2022-12-15T19:37:55.250Z,127.93
2022-12-15T19:40:27.349Z,124.93
2022-12-15T19:42:56.763Z,139.27
2022-12-15T19:45:26.885Z,129.45
2022-12-15T19:47:55.349Z,138.35
2022-12-15T19:50:25.022Z,129.55
2022-12-15T19:52:55.939Z,140.88
2022-12-15T19:55:27.826Z,150.60
2022-12-15T19:57:57.118Z,124.50
2022-12-15T20:00:26.878Z,113.30
2022-12-15T20:02:56.649Z,136.95
2022-12-15T20:05:25.858Z,159.30
2022-12-15T20:07:54.541Z,124.95
2022-12-15T20:10:27.865Z,120.53
2022-12-15T20:13:01.175Z,114.13
2022-12-15T20:15:29.430Z,130.33
2022-12-15T20:17:57.892Z,119.70
2022-12-15T20:20:28.620Z,117.85
2022-12-15T20:22:59.754Z,120.38
2022-12-15T20:25:29.600Z,104.70
2022-12-15T20:28:00.145Z,106.53
2022-12-15T20:30:32.629Z,104.05
2022-12-15T20:33:00.981Z,109.28
2022-12-15T20:35:29.115Z,104.03
2022-12-15T20:37:56.929Z,103.88
2022-12-15T20:40:27.541Z,92.22
2022-12-15T20:42:56.895Z,98.78
2022-12-15T20:45:27.407Z,102.35
2022-12-15T20:47:57.519Z,96.25
2022-12-15T20:50:28.949Z,85.63
2022-12-15T20:52:56.974Z,88.63
2022-12-15T20:55:24.936Z,88.85
2022-12-15T20:57:52.853Z,92.38
2022-12-15T21:00:21.780Z,87.10
2022-12-15T21:02:51.980Z,88.95
2022-12-15T21:05:26.005Z,80.68
2022-12-15T21:07:54.388Z,75.47
2022-12-15T21:10:22.501Z,72.70
2022-12-15T21:12:51.599Z,75.15
2022-12-15T21:15:22.864Z,68.57
2022-12-15T21:18:11.101Z,63.95
2022-12-15T21:20:43.453Z,63.08
2022-12-15T21:23:28.297Z,63.42
2022-12-15T21:25:57.646Z,70.38
2022-12-15T21:28:26.158Z,61.15
2022-12-15T21:30:54.151Z,60.78
2022-12-15T21:33:22.005Z,58.38
2022-12-15T21:35:51.208Z,55.45
2022-12-15T21:38:30.141Z,56.43
2022-12-15T21:41:00.727Z,56.67
2022-12-15T21:43:31.386Z,57.30
2022-12-15T21:45:59.885Z,59.63
2022-12-15T21:48:45.629Z,55.88
2022-12-15T21:51:16.722Z,55.45
2022-12-15T21:53:46.968Z,53.57
2022-12-15T21:56:16.362Z,51.78
2022-12-15T21:58:44.202Z,57.28
2022-12-15T22:01:15.375Z,52.33
2022-12-15T22:03:45.759Z,46.83
2022-12-15T22:06:20.637Z,42.33
2022-12-15T22:08:48.546Z,42.83
2022-12-15T22:11:27.511Z,39.42
2022-12-15T22:13:57.590Z,44.08
2022-12-15T22:16:25.468Z,41.95
2022-12-15T22:18:55.808Z,41.13
2022-12-15T22:21:25.933Z,40.20
2022-12-15T22:23:53.809Z,37.25
2022-12-15T22:26:24.785Z,37.03
2022-12-15T22:28:53.123Z,38.63
2022-12-15T22:31:22.729Z,36.40
2022-12-15T22:33:50.747Z,34.30
2022-12-15T22:36:18.490Z,34.50
2022-12-15T22:38:47.643Z,34.78
2022-12-15T22:41:20.355Z,34.53
2022-12-15T22:43:51.009Z,35.03
2022-12-15T22:46:21.407Z,37.28
2022-12-15T22:48:49.446Z,36.88
2022-12-15T22:51:19.513Z,35.40
2022-12-15T22:53:48.759Z,37.63
2022-12-15T22:56:24.710Z,32.40
2022-12-15T22:58:57.043Z,37.08
2022-12-15T23:01:26.697Z,33.72
2022-12-15T23:03:55.476Z,33.85
2022-12-15T23:06:24.155Z,36.67
2022-12-15T23:08:55.998Z,35.67
2022-12-15T23:11:39.236Z,34.95
2022-12-15T23:14:08.255Z,36.63
2022-12-15T23:16:35.532Z,39.35
2022-12-15T23:19:03.639Z,37.58
2022-12-15T23:21:32.234Z,36.92
2022-12-15T23:24:01.676Z,35.97
2022-12-15T23:26:29.551Z,35.83
2022-12-15T23:28:57.394Z,33.83
2022-12-15T23:31:25.229Z,33.58
2022-12-15T23:33:53.967Z,34.13
2022-12-15T23:36:21.734Z,37.60
2022-12-15T23:38:49.991Z,37.75
2022-12-15T23:41:20.866Z,40.53
2022-12-15T23:43:48.642Z,42.40
2022-12-15T23:46:16.503Z,42.38
2022-12-15T23:48:45.553Z,40.13
2022-12-15T23:51:15.188Z,39.78
2022-12-15T23:53:43.878Z,43.10
2022-12-15T23:56:13.667Z,39.80
2022-12-15T23:58:44.832Z,40.83
